Portada
METAR-TAF:

METAR-TAF

Aeropuertos :

Wallis, Francia

Aeropuerto de Hihifo

latitud: 13-14S, longitud: 176-10W, altitud: 23 m

METAR: falta

Hora: 18:19 (06:19 UTC)

Pronóstico

El informe se hizo hace 1 hora y 19 minutos, a las 05:00 UTC
Pronóstico válido del 27 a las 06 UTC al 28 a las 06 UTC
Viento 8 kt del sur-sureste
Visibilidad 10 km o más
Nubes dispersas a una altura de 2500 ft
Nubes dispersas a una altura de 6000 ft
Temporalmente
del 27 a las 06 UTC al 28 a las 06 UTC
Visibilidad: 4000 m
Cielo nuboso a una altura de 1400 ft
Escasas nubes a una altura de 3000 ft, Cumulus congestus.
chaparrones de lluvia
Probabilidad 30% :
Temporalmente
del 27 a las 18 UTC al 28 a las 06 UTC
Visibilidad: 2000 m
Escasas nubes a una altura de 2000 ft, Cumulonimbus.

TAF: NLWW 270500Z 2706/2806 15008KT 9999 SCT025 SCT060 TEMPO 2706/2806 4000 SHRA BKN014 FEW030TCU PROB30 TEMPO 2718/2806 2000 FEW020CB

Observaciones y pronósticos meteorológicos de más de 4000 aeropuertos (mensajes METAR y TAF).

Los puntos amarillos y rojos representan las estaciones disponibles.

Ponga el ratón en el punto deseado para ver el nombre de la estación.

Haga clic para ver las observaciones y los pronósticos meteorológicos.

Para cambiar el mapa : haga clic en los botones verdes con una cruz de color negro para hacer un zoom, en el botón verde con un guión para alejar o en las flechas verdes para mapas adyacentes.


METAR-TAF: